Flight Track Log - Related Links

Times and Time Zones

All times are in EDT time to prevent confusion due to time zone crossing. See the SWA279 flight status page for this flight to view local times or setup timezone preferences in your user account.

Time Position Orientation Groundspeed Altitude Reporting Facility
EDT Latitude Longitude Course Direction KTS MPH feet Rate Location/Type
Fri 08:04:28 PM 33.9414 -118.5103 257° West 215 247 3,500  Level Los Angeles Center
Fri 08:05:30 PM 33.9350 -118.6008 265° West 255 293 7,300 2,661 Climbing Los Angeles Center
Fri 08:06:32 PM 33.9694 -118.6739 300° West 269 310 9,000 823 Climbing Los Angeles Center
Fri 08:07:34 PM 34.0356 -118.7100 336° Northwest 274 315 9,000  Level Los Angeles Center
Fri 08:08:36 PM 34.1008 -118.6622 31° Northeast 275 316 9,000 871 Level Los Angeles Center
Fri 08:09:38 PM 34.1706 -118.6264 23° Northeast 273 314 10,800 2,032 Climbing Los Angeles Center
Fri 08:10:40 PM 34.2619 -118.6150 North 334 384 13,200 2,806 Climbing Los Angeles Center
Fri 08:11:42 PM 34.3569 -118.6394 348° North 350 403 16,600 3,387 Climbing Los Angeles Center
Fri 08:12:44 PM 34.4714 -118.6950 338° Northwest 367 422 20,200 3,120 Climbing Los Angeles Center
Fri 08:13:47 PM 34.5706 -118.7447 338° Northwest 384 442 23,100 2,592 Climbing Los Angeles Center
Fri 08:14:49 PM 34.6733 -118.7836 343° North 388 447 25,600 2,177 Climbing Los Angeles Center
Fri 08:15:51 PM 34.7869 -118.8028 352° North 410 472 27,600 1,935 Climbing Los Angeles Center
Fri 08:16:53 PM 34.9097 -118.8233 352° North 420 483 29,600 2,032 Climbing Los Angeles Center
Fri 08:17:55 PM 35.0278 -118.8425 352° North 427 491 31,800 2,129 Climbing Los Angeles Center
Fri 08:18:57 PM 35.1425 -118.8628 352° North 421 484 34,000 2,177 Climbing Los Angeles Center
Fri 08:19:59 PM 35.2811 -118.8850 353° North 421 484 36,300 1,790 Climbing Los Angeles Center
Fri 08:21:01 PM 35.3928 -118.9044 352° North 412 474 37,700 823 Climbing Los Angeles Center
Fri 08:22:03 PM 35.5044 -118.9236 352° North 409 471 38,000 145 Climbing Los Angeles Center
Fri 08:23:05 PM 35.6169 -118.9436 352° North 408 470 38,000  Level Los Angeles Center
Fri 08:24:05 PM 35.7261 -118.9625 352° North 409 471 38,000  Level Oakland Center
Fri 08:25:07 PM 35.8369 -118.9811 352° North 406 467 38,000  Level Oakland Center
Fri 08:26:09 PM 35.9711 -119.0056 352° North 407 468 38,000  Level Oakland Center
Fri 08:27:10 PM 36.0819 -119.0244 352° North 405 466 38,000  Level Oakland Center
Fri 08:28:12 PM 36.1925 -119.0442 352° North 403 464 38,000  Level Oakland Center
Fri 08:29:13 PM 36.3047 -119.0639 352° North 408 470 38,000  Level Oakland Center
Fri 08:30:14 PM 36.4144 -119.0833 352° North 400 460 38,000 -585 Level Oakland Center
Fri 08:31:16 PM 36.5233 -119.1017 352° North 396 456 36,800 -1,024 Descending Oakland Center
Fri 08:32:17 PM 36.6333 -119.1217 352° North 400 460 35,900 -390 Descending Oakland Center
Fri 08:33:19 PM 36.7408 -119.1422 351° North 393 452 36,000 49 Climbing Oakland Center
Fri 08:34:20 PM 36.8708 -119.1644 352° North 397 457 36,000 -146 Level Oakland Center
Fri 08:35:22 PM 36.9783 -119.1861 351° North 399 459 35,700 -634 Descending Oakland Center
Fri 08:36:23 PM 37.0833 -119.2064 351° North 391 450 34,700 -976 Descending Oakland Center
Fri 08:37:25 PM 37.1883 -119.2261 351° North 392 451 33,700 -976 Descending Oakland Center
Fri 08:38:26 PM 37.2911 -119.2439 352° North 379 436 32,700 -984 Descending Oakland Center
Fri 08:39:27 PM 37.3908 -119.2628 351° North 369 425 31,700 -976 Descending Oakland Center
Fri 08:40:29 PM 37.4903 -119.2811 352° North 373 429 30,700 -976 Descending Oakland Center
Fri 08:41:30 PM 37.5869 -119.3031 350° North 357 411 29,700 -976 Descending Oakland Center
Fri 08:42:32 PM 37.6767 -119.3317 346° North 328 377 28,700 -1,122 Descending Oakland Center
Fri 08:43:33 PM 37.7853 -119.3742 343° North 339 390 27,400 -1,131 Descending Oakland Center
Fri 08:44:34 PM 37.8758 -119.4078 344° North 338 389 26,400 -976 Descending Oakland Center
Fri 08:45:36 PM 37.9633 -119.4414 343° North 331 381 25,400 -976 Descending Oakland Center
Fri 08:46:37 PM 38.0517 -119.4731 344° North 329 379 24,400 -683 Descending Oakland Center
Fri 08:47:39 PM 38.1406 -119.5053 344° North 332 382 24,000 -195 Descending Oakland Center
Fri 08:48:40 PM 38.2200 -119.5394 341° North 316 364 24,000  Level Oakland Center
Fri 08:49:41 PM 38.3044 -119.5714 343° North 315 362 24,000 -98 Level Oakland Center
Fri 08:50:43 PM 38.3897 -119.6039 343° North 318 366 23,800 -585 Descending Oakland Center
Fri 08:51:44 PM 38.4783 -119.6383 343° North 312 359 22,800 -1,131 Descending Oakland Center
Fri 08:52:45 PM 38.5608 -119.6711 343° North 310 357 21,500 -1,463 Descending Oakland Center
Fri 08:53:47 PM 38.6400 -119.7025 343° North 303 349 19,800 -1,610 Descending Oakland Center
Fri 08:54:48 PM 38.7172 -119.7325 343° North 296 341 18,200 -2,115 Descending Oakland Center
Fri 08:55:49 PM 38.7917 -119.7619 343° North 286 329 15,500 -2,016 Descending Oakland Center
Fri 08:56:50 PM 38.8744 -119.7686 356° North 296 341 14,100 -1,220 Descending Oakland Center
Fri 08:57:52 PM 38.9758 -119.7703 359° North 305 351 13,000 -1,463 Descending Oakland Center
Fri 08:58:53 PM 39.0583 -119.7686 North 299 344 11,100 -1,672 Descending Oakland Center
Fri 08:59:54 PM 39.1397 -119.7683 360° North 296 341 9,600 -1,180 Descending Oakland Center
Fri 09:00:55 PM 39.2183 -119.7658 North 292 336 8,700 -488 Descending Oakland Center
Fri 09:01:57 PM 39.2967 -119.7656 360° North 283 326 8,600 -98 Descending Oakland Center
Fri 09:02:58 PM 39.3536 -119.7686 358° North 275 316 8,500 -1,081 Descending Oakland Center
Fri 09:03:48 PM 39.4000 -119.7667 North 166 191 6,600 -1,514 Descending Northern Cal TRACON
Fri 09:04:49 PM 39.4333 -119.7667 360° North 148 170 5,700 -887 Descending Northern Cal TRACON
Fri 09:05:43 PM 39.4667 -119.7667 360° North 154 177 4,900 -889 Descending Northern Cal TRACON
Fri 09:07:00 PM 39.4833 -119.7667 North  Level FlightAware Approximate
Fri 09:14:00 PM 39.4991 -119.7681 North  Level Estimated

Login

Don't have an account? Register now (free) for customized features, flight alerts, and more!